Time;durP1;ratioP1;P1;durP2;ratioP2;P2;SDS_P1;SDS_P2;PMS_P1;PMS_P2;Temp;Humidity;BMP_temperature;BMP_pressure;BME280_temperature;BME280_humidity;BME280_pressure;Samples;Min_cycle;Max_cycle;Signal;HPM_P1;HPM_P2
2022/07/28 00:00:50;;;;;;;2.75;1.70;;;;;;;;;;1646149;29;21593;-58
2022/07/28 00:01:42;;;;;;;1.60;1.50;;;;;;;;;;1654122;29;21671;-57
2022/07/28 00:02:33;;;;;;;2.28;1.50;;;;;;;;;;1655931;29;21701;-57
2022/07/28 00:03:25;;;;;;;2.67;1.55;;;;;;;;;;1656287;29;22484;-58
2022/07/28 00:04:16;;;;;;;2.20;1.30;;;;;;;;;;1656257;29;22335;-57
2022/07/28 00:05:10;;;;;;;1.63;1.35;;;;;;;;;;1657119;29;22662;-57
2022/07/28 00:06:01;;;;;;;2.20;1.40;;;;;;;;;;1655304;29;21637;-56
2022/07/28 00:06:53;;;;;;;3.28;1.50;;;;;;;;;;1655976;29;22450;-57
2022/07/28 00:07:44;;;;;;;1.60;1.50;;;;;;;;;;1655514;29;21700;-58
2022/07/28 00:08:37;;;;;;;4.97;1.30;;;;;;;;;;1656152;29;22129;-59
2022/07/28 00:09:28;;;;;;;2.05;1.58;;;;;;;;;;1656172;29;21825;-56
2022/07/28 00:10:21;;;;;;;1.63;1.35;;;;;;;;;;1649808;29;21740;-58
2022/07/28 00:11:12;;;;;;;3.67;1.50;;;;;;;;;;1654022;29;22182;-57
2022/07/28 00:12:05;;;;;;;5.35;1.40;;;;;;;;;;1656161;29;21637;-57
2022/07/28 00:12:58;;;;;;;4.85;1.10;;;;;;;;;;1655934;29;22119;-58
2022/07/28 00:13:50;;;;;;;1.95;1.50;;;;;;;;;;1655166;29;22185;-57
2022/07/28 00:14:42;;;;;;;3.28;1.40;;;;;;;;;;1656406;29;22762;-58
2022/07/28 00:15:35;;;;;;;1.75;1.38;;;;;;;;;;1656247;29;21784;-57
2022/07/28 00:16:27;;;;;;;1.67;1.42;;;;;;;;;;1655582;29;21659;-58
2022/07/28 00:17:19;;;;;;;3.55;1.40;;;;;;;;;;1656149;29;22386;-57
2022/07/28 00:18:13;;;;;;;4.78;1.38;;;;;;;;;;1655655;29;21720;-57
2022/07/28 00:19:05;;;;;;;6.13;1.65;;;;;;;;;;1657170;29;21588;-57
2022/07/28 00:19:56;;;;;;;1.65;1.35;;;;;;;;;;1656501;29;21708;-57
2022/07/28 00:20:49;;;;;;;4.57;1.27;;;;;;;;;;1655568;29;21923;-58
2022/07/28 00:21:40;;;;;;;2.17;1.98;;;;;;;;;;1655704;29;22078;-57
2022/07/28 00:22:32;;;;;;;1.95;1.23;;;;;;;;;;1656336;29;21608;-58
2022/07/28 00:23:23;;;;;;;3.15;1.35;;;;;;;;;;1656061;29;21631;-58
2022/07/28 00:24:16;;;;;;;2.55;1.15;;;;;;;;;;1655495;29;22084;-58
2022/07/28 00:25:09;;;;;;;1.42;1.25;;;;;;;;;;1657441;29;21612;-58
2022/07/28 00:26:01;;;;;;;5.85;1.48;;;;;;;;;;1657005;29;21610;-57
2022/07/28 00:26:52;;;;;;;1.85;1.05;;;;;;;;;;1655126;29;21729;-57
2022/07/28 00:27:44;;;;;;;1.92;1.35;;;;;;;;;;1654069;29;21638;-57
2022/07/28 00:28:36;;;;;;;1.35;1.20;;;;;;;;;;1656236;29;21616;-58
2022/07/28 00:29:28;;;;;;;2.13;1.40;;;;;;;;;;1655418;29;21740;-57
2022/07/28 00:30:20;;;;;;;3.42;1.30;;;;;;;;;;1656132;29;21632;-58
2022/07/28 00:31:14;;;;;;;1.38;1.10;;;;;;;;;;1656129;29;21609;-57
2022/07/28 00:32:05;;;;;;;2.08;1.20;;;;;;;;;;1655680;29;22541;-57
2022/07/28 00:32:58;;;;;;;0.82;0.82;;;;;;;;;;1655678;29;21647;-58
2022/07/28 00:33:49;;;;;;;2.22;1.45;;;;;;;;;;1655633;29;22072;-58
2022/07/28 00:34:41;;;;;;;1.35;1.25;;;;;;;;;;1655835;29;22543;-58
2022/07/28 00:35:32;;;;;;;2.65;1.33;;;;;;;;;;1656082;29;21757;-58
2022/07/28 00:36:25;;;;;;;1.20;1.10;;;;;;;;;;1655694;29;21662;-57
2022/07/28 00:37:16;;;;;;;2.50;1.10;;;;;;;;;;1655987;29;21649;-57
2022/07/28 00:38:08;;;;;;;2.15;1.95;;;;;;;;;;1655507;29;22280;-57
2022/07/28 00:38:59;;;;;;;1.10;1.00;;;;;;;;;;1656333;29;22514;-57
2022/07/28 00:39:52;;;;;;;1.80;1.30;;;;;;;;;;1655715;29;22084;-57
2022/07/28 00:41:54;;;;;;;1.33;1.23;;;;;;;;;;1655312;29;22009;-56
2022/07/28 00:42:45;;;;;;;1.30;1.02;;;;;;;;;;1657072;29;22511;-57
2022/07/28 00:43:37;;;;;;;4.18;1.38;;;;;;;;;;1655676;29;22183;-58
2022/07/28 00:44:28;;;;;;;1.75;1.15;;;;;;;;;;1655939;29;22042;-57
2022/07/28 00:45:20;;;;;;;2.45;1.27;;;;;;;;;;1656100;29;21616;-57
2022/07/28 00:46:15;;;;;;;1.08;0.98;;;;;;;;;;1655276;29;21993;-57
2022/07/28 00:47:08;;;;;;;1.55;1.10;;;;;;;;;;1654369;29;22556;-57
2022/07/28 00:47:59;;;;;;;2.75;1.30;;;;;;;;;;1656320;29;21617;-58
2022/07/28 00:48:53;;;;;;;2.72;1.40;;;;;;;;;;1654991;29;21788;-57
2022/07/28 00:49:45;;;;;;;1.20;1.08;;;;;;;;;;1656068;29;22479;-58
2022/07/28 00:50:39;;;;;;;1.98;1.30;;;;;;;;;;1656068;29;21587;-57
2022/07/28 00:51:31;;;;;;;5.10;1.27;;;;;;;;;;1654949;29;21780;-57
2022/07/28 00:52:24;;;;;;;0.95;0.90;;;;;;;;;;1655749;29;21611;-58
2022/07/28 00:53:16;;;;;;;3.03;1.20;;;;;;;;;;1655978;29;21561;-57
2022/07/28 00:54:09;;;;;;;2.28;1.05;;;;;;;;;;1655501;29;21734;-58
2022/07/28 00:55:03;;;;;;;6.55;1.90;;;;;;;;;;1655917;29;22525;-57
2022/07/28 00:55:54;;;;;;;1.27;1.17;;;;;;;;;;1649844;29;21653;-57
2022/07/28 00:56:46;;;;;;;1.65;1.30;;;;;;;;;;1654596;29;22576;-58
2022/07/28 00:57:39;;;;;;;2.03;1.17;;;;;;;;;;1655828;29;21833;-57
2022/07/28 00:58:32;;;;;;;1.08;0.98;;;;;;;;;;1649518;29;22445;-57
2022/07/28 00:59:24;;;;;;;1.23;1.10;;;;;;;;;;1655594;29;21604;-56
2022/07/28 01:00:17;;;;;;;1.33;1.13;;;;;;;;;;1655983;29;21991;-58
2022/07/28 01:01:10;;;;;;;1.65;1.35;;;;;;;;;;1655658;29;21786;-57
2022/07/28 01:02:04;;;;;;;1.58;1.20;;;;;;;;;;1653039;29;21653;-58
2022/07/28 01:02:56;;;;;;;1.55;1.45;;;;;;;;;;1656131;29;21595;-57
2022/07/28 01:03:53;;;;;;;1.45;1.35;;;;;;;;;;1656194;29;22165;-58
2022/07/28 01:04:44;;;;;;;1.33;1.20;;;;;;;;;;1655584;29;21883;-57
2022/07/28 01:05:47;;;;;;;2.00;1.30;;;;;;;;;;1656005;29;22436;-57
2022/07/28 01:06:53;;;;;;;2.78;1.23;;;;;;;;;;1655339;29;21586;-56
2022/07/28 01:07:55;;;;;;;1.48;1.38;;;;;;;;;;1655747;29;21849;-57
2022/07/28 01:08:59;;;;;;;1.35;1.15;;;;;;;;;;1655023;29;21952;-57
2022/07/28 01:10:04;;;;;;;1.00;0.90;;;;;;;;;;1655098;29;21655;-57
2022/07/28 01:11:03;;;;;;;1.17;1.00;;;;;;;;;;1657235;29;21685;-57
2022/07/28 01:12:07;;;;;;;1.25;1.10;;;;;;;;;;1655328;29;21817;-57
2022/07/28 01:13:08;;;;;;;1.33;0.90;;;;;;;;;;1655988;29;22260;-57
2022/07/28 01:14:09;;;;;;;1.08;1.00;;;;;;;;;;1655572;29;21621;-57
2022/07/28 01:15:15;;;;;;;1.70;1.08;;;;;;;;;;1655704;29;21876;-58
2022/07/28 01:16:08;;;;;;;1.40;1.10;;;;;;;;;;1655678;29;22418;-58
2022/07/28 01:17:08;;;;;;;1.75;1.30;;;;;;;;;;1654924;29;21842;-57
2022/07/28 01:18:05;;;;;;;2.95;1.20;;;;;;;;;;1648888;29;21601;-58
2022/07/28 01:19:09;;;;;;;1.38;0.98;;;;;;;;;;1648786;29;21666;-57
2022/07/28 01:20:09;;;;;;;1.50;1.30;;;;;;;;;;1655452;29;22485;-57
2022/07/28 01:21:05;;;;;;;2.70;0.82;;;;;;;;;;1656179;29;22013;-57
2022/07/28 01:22:00;;;;;;;3.08;0.98;;;;;;;;;;1655766;29;21594;-57
2022/07/28 01:23:12;;;;;;;1.30;1.20;;;;;;;;;;1656676;29;22282;-57
2022/07/28 01:24:16;;;;;;;1.48;1.38;;;;;;;;;;1650789;29;21592;-57
2022/07/28 01:25:21;;;;;;;2.33;1.00;;;;;;;;;;1656434;29;22565;-57
2022/07/28 01:26:34;;;;;;;1.58;1.13;;;;;;;;;;1651078;29;22328;-58
2022/07/28 01:27:46;;;;;;;1.52;1.15;;;;;;;;;;1655414;29;22032;-58
2022/07/28 01:28:56;;;;;;;2.42;1.10;;;;;;;;;;1655239;29;21942;-57
2022/07/28 01:30:03;;;;;;;1.13;0.98;;;;;;;;;;1654330;29;22075;-58
2022/07/28 01:31:02;;;;;;;1.30;1.20;;;;;;;;;;1655731;29;22641;-57
2022/07/28 01:32:00;;;;;;;1.33;1.20;;;;;;;;;;1649395;29;21625;-57
2022/07/28 01:32:57;;;;;;;1.20;1.10;;;;;;;;;;1651286;29;21932;-56
2022/07/28 01:33:55;;;;;;;1.10;1.00;;;;;;;;;;1655313;29;21598;-57
2022/07/28 01:34:52;;;;;;;1.02;0.90;;;;;;;;;;1655319;29;21614;-56
2022/07/28 01:35:53;;;;;;;1.17;1.00;;;;;;;;;;1655318;29;21827;-58
2022/07/28 01:36:51;;;;;;;1.42;1.10;;;;;;;;;;1656260;29;21603;-58
2022/07/28 01:37:46;;;;;;;6.07;1.23;;;;;;;;;;1656047;29;22361;-57
2022/07/28 01:38:39;;;;;;;2.95;1.10;;;;;;;;;;1655256;29;21585;-58
2022/07/28 01:39:36;;;;;;;1.15;1.00;;;;;;;;;;1657033;29;21841;-58
2022/07/28 01:40:33;;;;;;;1.52;0.95;;;;;;;;;;1655979;29;21949;-58
2022/07/28 01:41:29;;;;;;;0.93;0.88;;;;;;;;;;1655348;29;21865;-57
2022/07/28 01:42:23;;;;;;;6.32;1.17;;;;;;;;;;1655838;29;21850;-57
2022/07/28 01:43:22;;;;;;;1.73;1.10;;;;;;;;;;1655917;29;22644;-57
2022/07/28 01:44:18;;;;;;;8.23;1.45;;;;;;;;;;1655552;29;22537;-58
2022/07/28 01:45:13;;;;;;;5.28;1.20;;;;;;;;;;1655791;29;21609;-58
2022/07/28 01:46:07;;;;;;;9.50;1.20;;;;;;;;;;1655340;29;21650;-57
2022/07/28 01:47:00;;;;;;;1.83;1.10;;;;;;;;;;1648571;29;21664;-57
2022/07/28 01:47:54;;;;;;;1.45;0.85;;;;;;;;;;1648549;29;22194;-57
2022/07/28 01:48:49;;;;;;;1.88;1.10;;;;;;;;;;1652761;29;21724;-58
2022/07/28 01:49:43;;;;;;;1.70;1.20;;;;;;;;;;1655579;29;21667;-57
2022/07/28 01:50:36;;;;;;;1.42;1.20;;;;;;;;;;1649644;29;22442;-57
2022/07/28 01:51:30;;;;;;;2.22;1.08;;;;;;;;;;1654824;29;21979;-57
2022/07/28 01:52:24;;;;;;;3.83;1.02;;;;;;;;;;1655228;29;21720;-58
2022/07/28 01:53:16;;;;;;;4.97;1.30;;;;;;;;;;1649503;29;22140;-58
2022/07/28 01:54:10;;;;;;;6.20;1.35;;;;;;;;;;1654527;29;21791;-57
2022/07/28 01:55:02;;;;;;;8.38;1.25;;;;;;;;;;1655312;29;21692;-57
2022/07/28 01:55:58;;;;;;;3.83;1.20;;;;;;;;;;1655733;29;21835;-57
2022/07/28 01:56:52;;;;;;;3.15;0.80;;;;;;;;;;1654518;29;21859;-57
2022/07/28 01:57:44;;;;;;;9.43;1.40;;;;;;;;;;1655393;29;22008;-57
2022/07/28 01:58:37;;;;;;;2.25;1.10;;;;;;;;;;1649495;29;21598;-57
2022/07/28 01:59:32;;;;;;;1.55;0.82;;;;;;;;;;1654871;29;21609;-58
2022/07/28 02:00:25;;;;;;;1.98;1.20;;;;;;;;;;1655506;29;22519;-58
2022/07/28 02:01:21;;;;;;;1.95;1.73;;;;;;;;;;1649491;29;22612;-58
2022/07/28 02:02:15;;;;;;;2.00;1.00;;;;;;;;;;1655442;29;21665;-57
2022/07/28 02:03:09;;;;;;;2.25;1.00;;;;;;;;;;1655762;29;21992;-58
2022/07/28 02:04:03;;;;;;;1.65;0.90;;;;;;;;;;1655593;29;22411;-58
2022/07/28 02:04:58;;;;;;;2.00;0.90;;;;;;;;;;1654513;29;21706;-57
2022/07/28 02:05:52;;;;;;;1.85;1.38;;;;;;;;;;1653659;29;21661;-57
2022/07/28 02:06:46;;;;;;;1.52;1.00;;;;;;;;;;1655142;29;22604;-57
2022/07/28 02:07:41;;;;;;;1.95;1.00;;;;;;;;;;1655281;29;21609;-57
2022/07/28 02:08:34;;;;;;;1.35;1.02;;;;;;;;;;1655738;29;22466;-57
2022/07/28 02:09:26;;;;;;;2.58;0.88;;;;;;;;;;1655786;29;21696;-57
2022/07/28 02:10:20;;;;;;;1.17;0.70;;;;;;;;;;1655691;29;22059;-57
2022/07/28 02:12:22;;;;;;;1.60;0.90;;;;;;;;;;1654684;29;21607;-57
2022/07/28 02:13:14;;;;;;;0.80;0.80;;;;;;;;;;1655582;29;21582;-58
2022/07/28 02:14:07;;;;;;;2.40;0.90;;;;;;;;;;1655009;29;22306;-58
2022/07/28 02:15:00;;;;;;;1.55;0.98;;;;;;;;;;1656033;29;21649;-57
2022/07/28 02:15:52;;;;;;;2.55;1.17;;;;;;;;;;1655667;29;22521;-57
2022/07/28 02:16:51;;;;;;;4.75;1.08;;;;;;;;;;1654588;29;21826;-58
2022/07/28 02:17:45;;;;;;;2.78;0.93;;;;;;;;;;1655742;29;21956;-58
2022/07/28 02:18:38;;;;;;;1.20;0.80;;;;;;;;;;1655515;29;21582;-58
2022/07/28 02:19:31;;;;;;;2.92;1.10;;;;;;;;;;1654832;29;21664;-57
2022/07/28 02:20:23;;;;;;;1.50;1.13;;;;;;;;;;1655477;29;21598;-58
2022/07/28 02:21:15;;;;;;;1.00;0.80;;;;;;;;;;1655549;29;21983;-57
2022/07/28 02:22:09;;;;;;;2.08;1.13;;;;;;;;;;1655081;29;21588;-57
2022/07/28 02:23:01;;;;;;;0.80;0.80;;;;;;;;;;1655558;29;22352;-57
2022/07/28 02:23:54;;;;;;;1.10;0.90;;;;;;;;;;1654860;29;21744;-57
2022/07/28 02:24:47;;;;;;;1.30;0.93;;;;;;;;;;1654813;29;22170;-58
2022/07/28 02:25:41;;;;;;;1.60;1.15;;;;;;;;;;1655731;29;22184;-57
2022/07/28 02:26:36;;;;;;;1.10;0.70;;;;;;;;;;1655135;29;21822;-57
2022/07/28 02:27:37;;;;;;;2.05;1.00;;;;;;;;;;1655550;29;22445;-57
2022/07/28 02:28:28;;;;;;;2.90;0.80;;;;;;;;;;1655397;29;21632;-57
2022/07/28 02:29:24;;;;;;;3.70;0.88;;;;;;;;;;1655154;29;21616;-58
2022/07/28 02:30:17;;;;;;;1.92;1.05;;;;;;;;;;1655421;29;21729;-58
2022/07/28 02:31:18;;;;;;;0.90;0.80;;;;;;;;;;1655751;29;21593;-58
2022/07/28 02:32:17;;;;;;;0.98;0.82;;;;;;;;;;1654396;29;21641;-58
2022/07/28 02:33:16;;;;;;;2.15;0.85;;;;;;;;;;1654261;29;21645;-57
2022/07/28 02:34:07;;;;;;;1.00;0.90;;;;;;;;;;1655422;29;22588;-57
2022/07/28 02:35:06;;;;;;;1.67;0.90;;;;;;;;;;1655150;29;21713;-58
2022/07/28 02:36:03;;;;;;;1.52;0.95;;;;;;;;;;1655419;29;21831;-58
2022/07/28 02:36:59;;;;;;;1.15;1.00;;;;;;;;;;1654747;29;22217;-57
2022/07/28 02:37:56;;;;;;;0.80;0.73;;;;;;;;;;1652280;29;22058;-58
2022/07/28 02:38:51;;;;;;;2.00;0.90;;;;;;;;;;1654907;29;21779;-57
2022/07/28 02:39:47;;;;;;;3.53;1.08;;;;;;;;;;1655581;29;21782;-56
2022/07/28 02:40:43;;;;;;;1.25;0.80;;;;;;;;;;1655321;29;21604;-57
2022/07/28 02:41:41;;;;;;;1.15;0.68;;;;;;;;;;1653836;29;22106;-58
2022/07/28 02:42:35;;;;;;;1.25;0.77;;;;;;;;;;1650473;29;21598;-58
2022/07/28 02:43:28;;;;;;;1.15;0.80;;;;;;;;;;1656077;29;22404;-58
2022/07/28 02:44:27;;;;;;;3.20;1.25;;;;;;;;;;1654279;29;21702;-57
2022/07/28 02:45:21;;;;;;;1.08;0.73;;;;;;;;;;1650493;29;21662;-58
2022/07/28 02:46:17;;;;;;;1.30;0.85;;;;;;;;;;1655974;29;21875;-58
2022/07/28 02:47:21;;;;;;;1.08;0.95;;;;;;;;;;1655323;29;22210;-57
2022/07/28 02:48:17;;;;;;;1.33;0.93;;;;;;;;;;1656566;29;22374;-58
2022/07/28 02:49:15;;;;;;;1.17;0.85;;;;;;;;;;1656749;29;21827;-58
2022/07/28 02:50:10;;;;;;;1.63;1.00;;;;;;;;;;1657590;29;21712;-57
2022/07/28 02:51:02;;;;;;;1.65;0.90;;;;;;;;;;1656728;29;22742;-57
2022/07/28 02:51:56;;;;;;;1.42;0.98;;;;;;;;;;1656531;29;21590;-57
2022/07/28 02:52:48;;;;;;;1.00;0.90;;;;;;;;;;1653022;29;22149;-57
2022/07/28 02:53:41;;;;;;;0.82;0.60;;;;;;;;;;1656553;29;22427;-57
2022/07/28 02:54:33;;;;;;;1.00;0.70;;;;;;;;;;1656460;29;21921;-57
2022/07/28 02:55:26;;;;;;;1.25;1.00;;;;;;;;;;1657015;29;22532;-57
2022/07/28 02:56:17;;;;;;;2.38;1.05;;;;;;;;;;1657145;29;21697;-56
2022/07/28 02:57:10;;;;;;;1.15;0.93;;;;;;;;;;1656639;29;21923;-57
2022/07/28 02:58:06;;;;;;;2.80;0.98;;;;;;;;;;1656172;29;22702;-57
2022/07/28 02:59:00;;;;;;;1.08;1.00;;;;;;;;;;1654826;29;22159;-57
2022/07/28 02:59:52;;;;;;;1.25;0.90;;;;;;;;;;1656136;29;21699;-58
2022/07/28 03:00:45;;;;;;;1.80;1.17;;;;;;;;;;1656094;29;21694;-57
2022/07/28 03:01:37;;;;;;;2.85;0.82;;;;;;;;;;1654454;29;21745;-57
2022/07/28 03:02:33;;;;;;;1.13;0.65;;;;;;;;;;1656778;29;21716;-58
2022/07/28 03:03:25;;;;;;;1.00;0.90;;;;;;;;;;1655598;29;22707;-57
2022/07/28 03:04:55;;;;;;;0.80;0.80;;;;;;;;;;1656566;29;21929;-57
2022/07/28 03:05:31;;;;;;;1.05;0.85;;;;;;;;;;1656717;29;22269;-58
2022/07/28 03:06:24;;;;;;;1.02;0.85;;;;;;;;;;1655752;29;21608;-57
2022/07/28 03:07:16;;;;;;;1.42;0.80;;;;;;;;;;1656438;29;21655;-57
2022/07/28 03:08:09;;;;;;;1.52;0.98;;;;;;;;;;1656449;29;22595;-58
2022/07/28 03:09:00;;;;;;;1.08;0.80;;;;;;;;;;1655947;29;21718;-57
2022/07/28 03:09:53;;;;;;;0.88;0.80;;;;;;;;;;1655988;29;21945;-57
2022/07/28 03:10:44;;;;;;;1.67;1.00;;;;;;;;;;1656291;29;22477;-58
2022/07/28 03:11:36;;;;;;;1.15;0.70;;;;;;;;;;1656056;29;22371;-57
2022/07/28 03:12:28;;;;;;;1.55;0.73;;;;;;;;;;1656317;29;21652;-57
2022/07/28 03:13:20;;;;;;;1.20;0.70;;;;;;;;;;1656563;29;22285;-57
2022/07/28 03:14:11;;;;;;;1.05;0.73;;;;;;;;;;1656146;29;21941;-58
2022/07/28 03:15:04;;;;;;;1.45;0.73;;;;;;;;;;1656401;29;22677;-57
2022/07/28 03:15:56;;;;;;;0.75;0.75;;;;;;;;;;1656525;29;22466;-57
2022/07/28 03:16:48;;;;;;;3.78;1.05;;;;;;;;;;1655411;29;22071;-57
2022/07/28 03:17:40;;;;;;;0.85;0.80;;;;;;;;;;1656586;29;21605;-58
2022/07/28 03:18:33;;;;;;;3.03;1.10;;;;;;;;;;1656410;29;22175;-57
2022/07/28 03:19:24;;;;;;;1.23;0.73;;;;;;;;;;1656059;29;21818;-57
2022/07/28 03:20:16;;;;;;;1.27;0.73;;;;;;;;;;1656392;29;21760;-58
2022/07/28 03:21:08;;;;;;;1.13;0.93;;;;;;;;;;1656478;29;22561;-58
2022/07/28 03:22:00;;;;;;;1.42;0.80;;;;;;;;;;1656075;29;21674;-57
2022/07/28 03:22:51;;;;;;;1.42;1.10;;;;;;;;;;1655972;29;21682;-57
2022/07/28 03:23:47;;;;;;;0.75;0.75;;;;;;;;;;1656349;29;22222;-58
2022/07/28 03:24:42;;;;;;;1.00;0.77;;;;;;;;;;1655564;29;21759;-57
2022/07/28 03:25:43;;;;;;;0.93;0.80;;;;;;;;;;1654395;29;21626;-57
2022/07/28 03:26:40;;;;;;;3.13;0.77;;;;;;;;;;1656368;29;21730;-57
2022/07/28 03:27:35;;;;;;;1.00;0.80;;;;;;;;;;1653840;29;21595;-57
2022/07/28 03:28:27;;;;;;;0.88;0.70;;;;;;;;;;1656278;29;22085;-57
2022/07/28 03:29:20;;;;;;;0.80;0.77;;;;;;;;;;1656427;29;21617;-57
2022/07/28 03:30:18;;;;;;;1.88;0.90;;;;;;;;;;1656082;29;22346;-57
2022/07/28 03:31:12;;;;;;;0.70;0.70;;;;;;;;;;1656452;29;22516;-58
2022/07/28 03:32:04;;;;;;;1.48;0.80;;;;;;;;;;1656292;29;22201;-57
2022/07/28 03:33:00;;;;;;;1.23;0.75;;;;;;;;;;1655905;29;21827;-57
2022/07/28 03:33:52;;;;;;;1.67;0.95;;;;;;;;;;1655716;29;21949;-57
2022/07/28 03:34:44;;;;;;;1.95;0.88;;;;;;;;;;1656166;29;21598;-58
2022/07/28 03:35:40;;;;;;;2.75;0.80;;;;;;;;;;1655877;29;22818;-57
2022/07/28 03:36:40;;;;;;;2.95;1.08;;;;;;;;;;1655107;29;22436;-57
2022/07/28 03:37:37;;;;;;;0.90;0.80;;;;;;;;;;1654195;29;22672;-58
2022/07/28 03:38:37;;;;;;;1.80;0.90;;;;;;;;;;1655747;29;21712;-57
2022/07/28 03:39:33;;;;;;;1.42;0.80;;;;;;;;;;1656465;29;21727;-57
2022/07/28 03:40:28;;;;;;;0.70;0.68;;;;;;;;;;1656302;29;22059;-57
2022/07/28 03:41:20;;;;;;;2.53;0.95;;;;;;;;;;1656061;29;21600;-58
2022/07/28 03:42:14;;;;;;;0.80;0.60;;;;;;;;;;1656609;29;22448;-58
2022/07/28 03:43:07;;;;;;;1.00;0.90;;;;;;;;;;1656373;29;22954;-57
2022/07/28 03:44:01;;;;;;;1.33;1.13;;;;;;;;;;1655695;29;21587;-57
2022/07/28 03:44:53;;;;;;;1.05;0.80;;;;;;;;;;1656106;29;22612;-57
2022/07/28 03:45:46;;;;;;;1.00;0.88;;;;;;;;;;1656581;29;22625;-58
2022/07/28 03:46:43;;;;;;;1.00;0.90;;;;;;;;;;1655496;29;22414;-58
2022/07/28 03:47:35;;;;;;;1.13;0.85;;;;;;;;;;1656519;29;21770;-57
2022/07/28 03:48:30;;;;;;;1.25;0.90;;;;;;;;;;1656357;29;21784;-57
2022/07/28 03:49:22;;;;;;;1.05;0.85;;;;;;;;;;1655806;29;21780;-57
2022/07/28 03:50:13;;;;;;;3.20;0.73;;;;;;;;;;1656613;29;21584;-57
2022/07/28 03:51:06;;;;;;;1.23;0.90;;;;;;;;;;1656113;29;22389;-57
2022/07/28 03:51:57;;;;;;;1.63;0.70;;;;;;;;;;1657100;29;21657;-57
2022/07/28 03:52:49;;;;;;;2.80;1.25;;;;;;;;;;1652187;29;22714;-57
2022/07/28 03:53:41;;;;;;;1.13;1.02;;;;;;;;;;1656257;29;22094;-57
2022/07/28 03:54:34;;;;;;;0.75;0.65;;;;;;;;;;1648651;29;21566;-57
2022/07/28 03:55:26;;;;;;;2.60;0.77;;;;;;;;;;1650858;29;21781;-57
2022/07/28 03:56:18;;;;;;;1.05;0.80;;;;;;;;;;1653576;29;21918;-57
2022/07/28 03:57:10;;;;;;;0.98;0.68;;;;;;;;;;1656055;29;21670;-57
2022/07/28 03:58:02;;;;;;;1.75;1.00;;;;;;;;;;1656555;29;21910;-58
2022/07/28 03:58:53;;;;;;;1.10;0.60;;;;;;;;;;1655878;29;21583;-58
2022/07/28 03:59:45;;;;;;;1.02;0.77;;;;;;;;;;1655655;29;21785;-57
2022/07/28 04:00:36;;;;;;;2.88;0.60;;;;;;;;;;1656480;29;22280;-57
2022/07/28 04:01:29;;;;;;;1.13;0.75;;;;;;;;;;1656619;29;21693;-57
2022/07/28 04:02:20;;;;;;;2.80;1.20;;;;;;;;;;1655868;29;21608;-57
2022/07/28 04:03:12;;;;;;;0.52;0.50;;;;;;;;;;1656309;29;21736;-58
2022/07/28 04:04:05;;;;;;;1.15;0.85;;;;;;;;;;1656331;29;22513;-57
2022/07/28 04:04:57;;;;;;;1.95;0.75;;;;;;;;;;1651564;29;22614;-57
2022/07/28 04:05:48;;;;;;;0.90;0.70;;;;;;;;;;1654051;29;21606;-57
2022/07/28 04:06:41;;;;;;;0.73;0.57;;;;;;;;;;1655808;29;21620;-57
2022/07/28 04:07:32;;;;;;;1.33;1.00;;;;;;;;;;1656003;29;21587;-58
2022/07/28 04:08:24;;;;;;;2.25;1.00;;;;;;;;;;1656126;29;21604;-57
2022/07/28 04:09:16;;;;;;;1.08;0.60;;;;;;;;;;1656512;29;21911;-58
2022/07/28 04:10:11;;;;;;;0.93;0.90;;;;;;;;;;1656420;29;21654;-57
2022/07/28 04:11:02;;;;;;;2.40;1.10;;;;;;;;;;1655672;29;21613;-58
2022/07/28 04:11:54;;;;;;;1.27;1.10;;;;;;;;;;1655894;29;21947;-57
2022/07/28 04:12:47;;;;;;;1.05;0.80;;;;;;;;;;1655860;29;21605;-57
2022/07/28 04:13:40;;;;;;;1.80;0.85;;;;;;;;;;1655619;29;21869;-57
2022/07/28 04:14:31;;;;;;;1.10;0.73;;;;;;;;;;1656226;29;21615;-58
2022/07/28 04:15:25;;;;;;;1.23;0.90;;;;;;;;;;1656205;29;22183;-57
2022/07/28 04:16:16;;;;;;;2.40;0.98;;;;;;;;;;1651364;29;21651;-57
2022/07/28 04:17:08;;;;;;;0.77;0.60;;;;;;;;;;1654403;29;21869;-57
2022/07/28 04:18:00;;;;;;;2.95;1.00;;;;;;;;;;1656115;29;21609;-57
2022/07/28 04:18:53;;;;;;;0.80;0.63;;;;;;;;;;1654688;29;21675;-57
2022/07/28 04:19:45;;;;;;;1.60;0.90;;;;;;;;;;1656246;29;22528;-58
2022/07/28 04:20:38;;;;;;;1.27;0.90;;;;;;;;;;1656013;29;21626;-58
2022/07/28 04:21:29;;;;;;;0.85;0.70;;;;;;;;;;1655711;29;21644;-57
2022/07/28 04:22:21;;;;;;;1.35;0.80;;;;;;;;;;1656261;29;22424;-57
2022/07/28 04:23:12;;;;;;;2.38;0.90;;;;;;;;;;1656011;29;21635;-58
2022/07/28 04:24:06;;;;;;;0.70;0.70;;;;;;;;;;1655423;29;22287;-58
2022/07/28 04:24:58;;;;;;;1.40;0.85;;;;;;;;;;1656115;29;22018;-57
2022/07/28 04:25:51;;;;;;;1.17;0.60;;;;;;;;;;1655930;29;21837;-57
2022/07/28 04:26:42;;;;;;;2.00;0.68;;;;;;;;;;1655223;29;21932;-57
2022/07/28 04:27:35;;;;;;;0.57;0.57;;;;;;;;;;1656094;29;21595;-57
2022/07/28 04:28:27;;;;;;;0.90;0.70;;;;;;;;;;1656197;29;21593;-58
2022/07/28 04:29:19;;;;;;;1.80;0.68;;;;;;;;;;1655611;29;21606;-57
2022/07/28 04:30:13;;;;;;;1.40;0.75;;;;;;;;;;1653554;29;22016;-57
2022/07/28 04:31:05;;;;;;;1.75;1.00;;;;;;;;;;1656175;29;22291;-58
2022/07/28 04:31:57;;;;;;;1.00;0.88;;;;;;;;;;1655831;29;22695;-57
2022/07/28 04:32:51;;;;;;;0.70;0.55;;;;;;;;;;1655849;29;21702;-57
2022/07/28 04:33:42;;;;;;;1.17;0.70;;;;;;;;;;1656129;29;22510;-58
2022/07/28 04:34:34;;;;;;;1.35;1.10;;;;;;;;;;1655676;29;21684;-59
2022/07/28 04:35:27;;;;;;;1.40;1.13;;;;;;;;;;1656039;29;22766;-57
2022/07/28 04:36:19;;;;;;;1.63;0.85;;;;;;;;;;1655723;29;21596;-58
2022/07/28 04:37:12;;;;;;;4.55;0.80;;;;;;;;;;1655631;29;22367;-57
2022/07/28 04:38:05;;;;;;;0.95;0.80;;;;;;;;;;1655882;29;22604;-58
2022/07/28 04:38:58;;;;;;;0.40;0.40;;;;;;;;;;1655910;29;22645;-57
2022/07/28 04:39:50;;;;;;;1.42;0.50;;;;;;;;;;1655694;29;21836;-57
2022/07/28 04:40:42;;;;;;;1.10;0.90;;;;;;;;;;1655895;29;21572;-57
2022/07/28 04:41:35;;;;;;;2.17;0.60;;;;;;;;;;1656112;29;21715;-57
2022/07/28 04:42:26;;;;;;;2.83;0.80;;;;;;;;;;1656385;29;22588;-57
2022/07/28 04:43:18;;;;;;;0.70;0.70;;;;;;;;;;1655661;29;22603;-58
2022/07/28 04:44:10;;;;;;;2.22;0.90;;;;;;;;;;1655807;29;22261;-57
2022/07/28 04:45:03;;;;;;;0.77;0.70;;;;;;;;;;1656413;29;21705;-57
2022/07/28 04:45:55;;;;;;;0.65;0.65;;;;;;;;;;1656301;29;21962;-57
2022/07/28 04:46:48;;;;;;;0.63;0.60;;;;;;;;;;1656454;29;21882;-57
2022/07/28 04:47:39;;;;;;;4.20;0.93;;;;;;;;;;1656237;29;21991;-57
2022/07/28 04:48:31;;;;;;;1.08;0.70;;;;;;;;;;1657098;29;21658;-57
2022/07/28 04:49:23;;;;;;;1.15;0.80;;;;;;;;;;1655935;29;21608;-57
2022/07/28 04:50:17;;;;;;;2.17;0.57;;;;;;;;;;1656165;29;22469;-57
2022/07/28 04:51:10;;;;;;;0.50;0.50;;;;;;;;;;1656118;29;22530;-57
2022/07/28 04:52:02;;;;;;;1.25;0.63;;;;;;;;;;1655435;29;21640;-57
2022/07/28 04:52:54;;;;;;;1.27;1.13;;;;;;;;;;1656151;29;22026;-57
2022/07/28 04:53:47;;;;;;;0.90;0.70;;;;;;;;;;1655660;29;22428;-58
2022/07/28 04:54:38;;;;;;;1.25;0.75;;;;;;;;;;1655463;29;21795;-58
2022/07/28 04:55:30;;;;;;;0.82;0.68;;;;;;;;;;1656119;29;21643;-57
2022/07/28 04:56:22;;;;;;;0.70;0.60;;;;;;;;;;1655360;29;21968;-58
2022/07/28 04:57:14;;;;;;;0.60;0.52;;;;;;;;;;1655509;29;21595;-58
2022/07/28 04:58:06;;;;;;;0.60;0.60;;;;;;;;;;1656079;29;21716;-57
2022/07/28 04:59:00;;;;;;;1.08;0.75;;;;;;;;;;1656010;29;21558;-58
2022/07/28 04:59:53;;;;;;;1.85;0.68;;;;;;;;;;1655010;29;21756;-57
2022/07/28 05:00:45;;;;;;;1.52;0.70;;;;;;;;;;1655814;29;21633;-58
2022/07/28 05:01:37;;;;;;;1.45;0.98;;;;;;;;;;1657265;29;22637;-56
2022/07/28 05:02:30;;;;;;;1.77;0.63;;;;;;;;;;1656750;29;22002;-57
2022/07/28 05:03:21;;;;;;;1.25;0.70;;;;;;;;;;1655323;29;22198;-57
2022/07/28 05:04:13;;;;;;;1.50;0.65;;;;;;;;;;1657396;29;21788;-58
2022/07/28 05:05:05;;;;;;;0.75;0.60;;;;;;;;;;1655469;29;21740;-57
2022/07/28 05:05:58;;;;;;;0.95;0.68;;;;;;;;;;1655752;29;21621;-57
2022/07/28 05:06:50;;;;;;;0.60;0.60;;;;;;;;;;1655311;29;21611;-57
2022/07/28 05:07:43;;;;;;;1.38;0.80;;;;;;;;;;1655436;29;22110;-58
2022/07/28 05:08:34;;;;;;;0.93;0.60;;;;;;;;;;1655934;29;22530;-58
2022/07/28 05:09:26;;;;;;;1.17;0.82;;;;;;;;;;1655974;29;21885;-57
2022/07/28 05:10:18;;;;;;;1.63;0.73;;;;;;;;;;1656113;29;21889;-57
2022/07/28 05:11:10;;;;;;;0.55;0.55;;;;;;;;;;1655448;29;22761;-58
2022/07/28 05:12:01;;;;;;;0.93;0.60;;;;;;;;;;1656074;29;21748;-58
2022/07/28 05:12:53;;;;;;;0.93;0.80;;;;;;;;;;1655480;29;22130;-57
2022/07/28 05:13:44;;;;;;;1.08;0.60;;;;;;;;;;1655092;29;21617;-58
2022/07/28 05:14:37;;;;;;;0.57;0.57;;;;;;;;;;1655722;29;21640;-58
2022/07/28 05:15:28;;;;;;;0.85;0.80;;;;;;;;;;1655679;29;22237;-58
2022/07/28 05:16:20;;;;;;;0.63;0.60;;;;;;;;;;1655277;29;21729;-57
2022/07/28 05:17:11;;;;;;;1.25;0.75;;;;;;;;;;1655596;29;21772;-58
2022/07/28 05:18:04;;;;;;;0.80;0.75;;;;;;;;;;1655825;29;22678;-57
2022/07/28 05:18:55;;;;;;;0.98;0.70;;;;;;;;;;1650864;29;21900;-57
2022/07/28 05:19:47;;;;;;;0.63;0.63;;;;;;;;;;1655426;29;21779;-58
2022/07/28 05:20:39;;;;;;;2.25;0.60;;;;;;;;;;1655956;29;21880;-58
2022/07/28 05:21:31;;;;;;;1.15;0.68;;;;;;;;;;1655501;29;21606;-58
2022/07/28 05:22:24;;;;;;;1.15;0.70;;;;;;;;;;1656066;29;21869;-57
2022/07/28 05:23:16;;;;;;;0.63;0.63;;;;;;;;;;1655889;29;22110;-58
2022/07/28 05:24:08;;;;;;;1.48;0.65;;;;;;;;;;1654767;29;22405;-58
2022/07/28 05:25:00;;;;;;;1.15;0.70;;;;;;;;;;1655824;29;21781;-57
2022/07/28 05:25:51;;;;;;;0.70;0.50;;;;;;;;;;1649200;29;21602;-58